Time;durP1;ratioP1;P1;durP2;ratioP2;P2;SDS_P1;SDS_P2;PMS_P1;PMS_P2;Temp;Humidity;BMP_temperature;BMP_pressure;BME280_temperature;BME280_humidity;BME280_pressure;Samples;Min_cycle;Max_cycle;Signal;HPM_P1;HPM_P2
2023/06/16 00:01:08;;;;;;;9.57;3.95;;;;;;;21.08;97.03;98769.53;5008805;28;20061;-73
2023/06/16 00:03:34;;;;;;;7.18;3.80;;;;;;;20.95;98.18;98771.31;5010475;28;20117;-73
2023/06/16 00:06:12;;;;;;;6.15;4.03;;;;;;;21.24;96.76;98762.47;5008652;28;20026;-73
2023/06/16 00:08:39;;;;;;;8.25;5.68;;;;;;;21.29;96.08;98771.31;5009665;28;20026;-73
2023/06/16 00:11:04;;;;;;;10.90;3.88;;;;;;;21.50;95.28;98780.00;5010041;28;20493;-73
2023/06/16 00:13:30;;;;;;;3.85;3.45;;;;;;;21.54;94.77;98781.59;5007499;28;20025;-73
2023/06/16 00:15:55;;;;;;;5.13;4.07;;;;;;;21.50;95.06;98772.28;5006710;28;20033;-73
2023/06/16 00:18:23;;;;;;;12.73;5.68;;;;;;;21.58;95.03;98776.63;5009309;28;20026;-73
2023/06/16 00:20:51;;;;;;;8.10;3.45;;;;;;;21.72;94.00;98780.53;5010959;28;20018;-73
2023/06/16 00:23:19;;;;;;;4.95;3.63;;;;;;;21.70;94.53;98780.16;5011158;28;20032;-73
2023/06/16 00:25:45;;;;;;;8.25;4.30;;;;;;;21.80;93.41;98778.41;5011118;28;20026;-73
2023/06/16 00:28:10;;;;;;;5.35;3.53;;;;;;;21.49;95.42;98775.56;5011323;28;20045;-73
2023/06/16 00:30:36;;;;;;;8.10;4.03;;;;;;;21.41;97.69;98764.25;5009342;28;20022;-74
2023/06/16 00:33:01;;;;;;;4.38;3.90;;;;;;;21.22;99.33;98762.06;5010577;28;20092;-74
2023/06/16 00:35:27;;;;;;;5.13;4.32;;;;;;;21.20;98.61;98758.84;5011172;28;20044;-74
2023/06/16 00:37:52;;;;;;;5.50;3.85;;;;;;;21.28;98.45;98766.06;5009617;28;20084;-73
2023/06/16 00:40:18;;;;;;;6.50;4.82;;;;;;;21.27;98.50;98761.59;5011038;28;20489;-73
2023/06/16 00:42:43;;;;;;;7.18;4.32;;;;;;;21.14;99.49;98762.16;5011024;28;20488;-74
2023/06/16 00:45:09;;;;;;;5.70;4.28;;;;;;;21.28;98.71;98755.47;5010071;28;20862;-74
2023/06/16 00:47:35;;;;;;;4.75;4.07;;;;;;;21.32;98.29;98763.97;5008365;28;20026;-74
2023/06/16 00:50:00;;;;;;;7.55;4.68;;;;;;;21.39;97.92;98761.03;5012969;28;20018;-74
2023/06/16 00:52:31;;;;;;;7.38;3.97;;;;;;;21.48;97.46;98756.84;5011685;28;20033;-74
2023/06/16 00:54:57;;;;;;;12.32;4.78;;;;;;;21.48;97.30;98748.31;5014603;28;20101;-73
2023/06/16 00:57:22;;;;;;;4.22;3.83;;;;;;;21.54;96.47;98758.00;5014252;28;20030;-74
2023/06/16 00:59:48;;;;;;;6.28;4.50;;;;;;;21.56;96.35;98759.19;5013106;28;20084;-74
2023/06/16 01:02:14;;;;;;;6.65;4.63;;;;;;;21.54;97.80;98755.97;5009729;28;20026;-74
2023/06/16 01:04:40;;;;;;;5.63;4.95;;;;;;;21.54;98.03;98763.69;5012016;28;20417;-74
2023/06/16 01:07:21;;;;;;;9.38;4.95;;;;;;;21.66;97.38;98763.16;5013446;28;20056;-74
2023/06/16 01:10:05;;;;;;;8.40;4.07;;;;;;;21.66;96.26;98771.69;5006481;28;20497;-74
2023/06/16 01:13:00;;;;;;;6.40;4.50;;;;;;;21.34;98.50;98774.94;5012281;28;20025;-74
2023/06/16 01:15:27;;;;;;;6.32;5.68;;;;;;;21.08;100.00;98768.75;5007324;28;20037;-74
2023/06/16 01:17:56;;;;;;;8.75;5.30;;;;;;;21.12;99.67;98769.50;4998672;28;20045;-74
2023/06/16 01:20:37;;;;;;;6.63;4.13;;;;;;;21.13;99.09;98756.91;5014064;28;20053;-74
2023/06/16 01:23:29;;;;;;;8.65;4.47;;;;;;;20.95;100.00;98740.06;4998395;28;20033;-74
2023/06/16 01:25:58;;;;;;;4.97;4.47;;;;;;;21.02;100.00;98720.09;5006178;28;20109;-74
2023/06/16 01:28:26;;;;;;;8.35;5.28;;;;;;;21.10;100.00;98726.47;5013297;28;20037;-74
2023/06/16 01:30:53;;;;;;;10.07;6.13;;;;;;;20.96;100.00;98738.81;5013650;28;20032;-74
2023/06/16 01:33:22;;;;;;;10.48;6.03;;;;;;;20.89;100.00;98739.72;5013793;28;20421;-74
2023/06/16 01:35:50;;;;;;;10.48;7.65;;;;;;;20.67;100.00;98744.81;5013191;28;20025;-74
2023/06/16 01:38:17;;;;;;;9.95;7.38;;;;;;;20.41;100.00;98747.88;5010503;28;20141;-74
2023/06/16 01:40:44;;;;;;;13.48;8.98;;;;;;;20.11;100.00;98751.38;5013193;28;20104;-75
2023/06/16 01:43:10;;;;;;;10.73;7.45;;;;;;;19.98;100.00;98760.41;5012168;28;20029;-74
2023/06/16 01:45:36;;;;;;;11.95;8.40;;;;;;;19.72;100.00;98756.91;5013493;28;20079;-75
2023/06/16 01:48:03;;;;;;;13.07;8.98;;;;;;;19.53;100.00;98751.75;5012079;28;20026;-74
2023/06/16 01:50:30;;;;;;;12.02;9.15;;;;;;;19.39;100.00;98753.44;5011639;28;20029;-74
2023/06/16 01:52:55;;;;;;;13.15;9.48;;;;;;;19.31;100.00;98751.88;5009605;28;20472;-74
2023/06/16 01:55:20;;;;;;;13.27;9.73;;;;;;;19.38;100.00;98748.97;5011243;28;20021;-74
2023/06/16 01:57:47;;;;;;;13.90;8.95;;;;;;;19.33;100.00;98747.38;5012085;28;20029;-75
2023/06/16 02:00:21;;;;;;;11.73;9.23;;;;;;;19.44;100.00;98749.34;5012202;28;20037;-74
2023/06/16 02:03:11;;;;;;;14.43;9.27;;;;;;;19.43;100.00;98740.06;5003718;28;20026;-74
2023/06/16 02:05:40;;;;;;;24.60;9.70;;;;;;;19.28;100.00;98745.00;5007935;28;20050;-74
2023/06/16 02:08:06;;;;;;;13.13;9.05;;;;;;;19.32;100.00;98753.47;5012220;28;20033;-74
2023/06/16 02:10:32;;;;;;;13.55;8.25;;;;;;;19.23;100.00;98753.91;5010979;28;20540;-74
2023/06/16 02:12:58;;;;;;;17.02;10.60;;;;;;;19.18;100.00;98749.47;5011747;28;20113;-74
2023/06/16 02:15:24;;;;;;;10.27;9.23;;;;;;;19.28;100.00;98742.16;5012488;28;20390;-74
2023/06/16 02:17:51;;;;;;;13.95;8.55;;;;;;;19.31;100.00;98749.03;5004145;28;20076;-74
2023/06/16 02:20:17;;;;;;;11.63;8.50;;;;;;;19.42;100.00;98755.44;4993928;28;20050;-74
2023/06/16 02:22:43;;;;;;;14.40;9.40;;;;;;;19.33;100.00;98755.88;5010576;28;20060;-74
2023/06/16 02:25:08;;;;;;;14.27;10.32;;;;;;;19.41;100.00;98761.53;5012339;28;20076;-74
2023/06/16 02:27:34;;;;;;;13.48;9.73;;;;;;;19.43;100.00;98757.06;5012028;28;20030;-74
2023/06/16 02:29:59;;;;;;;11.85;8.95;;;;;;;19.61;100.00;98761.84;5012073;28;20033;-74
2023/06/16 02:32:26;;;;;;;10.38;8.95;;;;;;;19.53;100.00;98760.25;5013215;28;20030;-74
2023/06/16 02:34:53;;;;;;;12.05;10.13;;;;;;;19.54;100.00;98756.19;5013310;28;20053;-74
2023/06/16 02:37:21;;;;;;;17.73;8.50;;;;;;;19.46;100.00;98761.91;5012872;28;20056;-74
2023/06/16 02:39:46;;;;;;;12.68;9.43;;;;;;;19.44;100.00;98755.03;5011548;28;20084;-74
2023/06/16 02:42:12;;;;;;;12.13;9.32;;;;;;;19.47;100.00;98757.84;5010654;28;20034;-74
2023/06/16 02:44:37;;;;;;;16.13;10.45;;;;;;;19.42;100.00;98749.75;5013040;28;20092;-74
2023/06/16 02:47:03;;;;;;;13.63;9.10;;;;;;;19.38;100.00;98756.69;5010299;28;20028;-74
2023/06/16 02:49:30;;;;;;;11.73;9.65;;;;;;;19.39;100.00;98756.25;5012994;28;20100;-74
2023/06/16 02:51:56;;;;;;;18.73;9.50;;;;;;;19.34;100.00;98756.72;5011793;28;20026;-74
2023/06/16 02:54:21;;;;;;;14.38;9.50;;;;;;;19.28;100.00;98752.69;5010595;28;20030;-74
2023/06/16 02:56:47;;;;;;;14.85;9.20;;;;;;;19.22;100.00;98753.13;5008244;28;20033;-74
2023/06/16 02:59:12;;;;;;;10.35;9.23;;;;;;;19.22;100.00;98755.94;5009174;28;20033;-74
2023/06/16 03:01:38;;;;;;;12.57;10.38;;;;;;;19.17;100.00;98749.91;5011164;28;20030;-74
2023/06/16 03:04:03;;;;;;;15.90;9.45;;;;;;;19.23;100.00;98753.91;5011592;28;20404;-74
2023/06/16 03:06:29;;;;;;;19.98;10.63;;;;;;;19.21;100.00;98756.34;5010112;28;20064;-74
2023/06/16 03:08:59;;;;;;;14.60;10.68;;;;;;;19.19;100.00;98751.13;5009695;28;20029;-74
2023/06/16 03:11:24;;;;;;;14.60;10.63;;;;;;;19.16;100.00;98751.13;5010556;28;20473;-74
2023/06/16 03:13:50;;;;;;;12.40;8.88;;;;;;;19.05;100.00;98754.81;5007173;28;20096;-74
2023/06/16 03:16:17;;;;;;;12.82;10.38;;;;;;;19.04;100.00;98758.03;5011701;28;20026;-74
2023/06/16 03:18:42;;;;;;;17.05;10.30;;;;;;;19.12;100.00;98758.81;5011740;28;20519;-73
2023/06/16 03:21:08;;;;;;;14.32;10.60;;;;;;;19.19;100.00;98753.94;5010617;28;20030;-73
2023/06/16 03:23:34;;;;;;;12.80;9.98;;;;;;;19.13;100.00;98755.56;5010438;28;20032;-74
2023/06/16 03:25:59;;;;;;;14.18;10.85;;;;;;;19.18;100.00;98757.19;5012330;28;20034;-74
2023/06/16 03:28:25;;;;;;;14.85;10.20;;;;;;;19.17;100.00;98761.25;5007514;28;20072;-73
2023/06/16 03:30:53;;;;;;;17.65;9.77;;;;;;;19.27;100.00;98759.56;5009509;28;20025;-73
2023/06/16 03:33:20;;;;;;;12.73;9.80;;;;;;;19.47;100.00;98766.38;5011671;28;20095;-74
2023/06/16 03:35:45;;;;;;;14.00;10.38;;;;;;;19.56;100.00;98770.78;5009534;28;20163;-74
2023/06/16 03:38:11;;;;;;;13.63;9.57;;;;;;;19.54;100.00;98773.19;5010442;28;20681;-74
2023/06/16 03:40:38;;;;;;;11.85;9.77;;;;;;;19.58;100.00;98759.84;5011266;28;20022;-73
2023/06/16 03:43:03;;;;;;;11.35;9.82;;;;;;;19.74;100.00;98768.63;5010858;28;20021;-73
2023/06/16 03:45:29;;;;;;;13.13;10.27;;;;;;;19.73;100.00;98767.03;5009772;28;20037;-74
2023/06/16 03:47:54;;;;;;;13.68;9.75;;;;;;;19.71;100.00;98760.13;5010606;28;20515;-74
2023/06/16 03:50:20;;;;;;;11.15;9.80;;;;;;;19.84;100.00;98766.16;5007701;28;20484;-74
2023/06/16 03:52:45;;;;;;;12.07;10.25;;;;;;;19.78;100.00;98769.41;5007767;28;20445;-74
2023/06/16 03:55:11;;;;;;;15.02;10.70;;;;;;;19.87;100.00;98762.47;4998661;28;20131;-75
2023/06/16 03:57:36;;;;;;;14.82;10.52;;;;;;;19.90;100.00;98768.13;5005826;28;20056;-75
2023/06/16 04:00:07;;;;;;;12.50;10.18;;;;;;;19.90;100.00;98764.47;5009122;28;20053;-76
2023/06/16 04:02:33;;;;;;;16.23;10.95;;;;;;;19.90;100.00;98758.78;5008709;28;20029;-75
2023/06/16 04:05:00;;;;;;;16.58;10.98;;;;;;;19.85;100.00;98759.25;5008236;28;20025;-75
2023/06/16 04:07:26;;;;;;;16.13;12.13;;;;;;;19.78;100.00;98766.56;5006637;28;20117;-76
2023/06/16 04:09:52;;;;;;;20.25;11.45;;;;;;;19.81;100.00;98761.31;5010504;28;20117;-75
2023/06/16 04:12:17;;;;;;;14.20;11.57;;;;;;;19.68;100.00;98773.16;4991868;28;20034;-75
2023/06/16 04:14:43;;;;;;;15.18;12.63;;;;;;;19.53;100.00;98761.06;5003442;28;20260;-75
2023/06/16 04:17:08;;;;;;;20.35;12.55;;;;;;;19.53;100.00;98763.91;5011564;28;20037;-75
2023/06/16 04:19:34;;;;;;;16.92;12.45;;;;;;;19.46;100.00;98755.41;5010492;28;20156;-78
2023/06/16 04:21:59;;;;;;;18.52;13.55;;;;;;;19.41;100.00;98758.69;5011689;28;20022;-77
2023/06/16 04:24:25;;;;;;;18.20;13.93;;;;;;;19.51;100.00;98757.84;5009448;28;20037;-77
2023/06/16 04:26:53;;;;;;;17.27;13.35;;;;;;;19.53;100.00;98755.41;5005894;28;20111;-73
2023/06/16 04:29:20;;;;;;;20.50;16.23;;;;;;;19.52;100.00;98750.94;5007081;28;20108;-73
2023/06/16 04:31:48;;;;;;;21.67;13.75;;;;;;;19.51;100.00;98752.16;5007058;28;20112;-75
2023/06/16 04:34:13;;;;;;;30.38;14.13;;;;;;;19.50;100.00;98751.34;5011402;28;20057;-76
2023/06/16 04:36:44;;;;;;;27.13;14.43;;;;;;;19.63;100.00;98750.88;5010372;28;20489;-76
2023/06/16 04:39:11;;;;;;;22.75;14.43;;;;;;;19.49;100.00;98754.63;5010789;28;20064;-76
2023/06/16 04:41:37;;;;;;;18.52;14.27;;;;;;;19.36;100.00;98754.28;5008222;28;20060;-76
2023/06/16 04:44:03;;;;;;;22.40;14.65;;;;;;;19.29;100.00;98746.59;5007421;28;20026;-76
2023/06/16 04:46:29;;;;;;;17.30;13.05;;;;;;;19.32;100.00;98757.13;5010223;28;20052;-76
2023/06/16 04:48:54;;;;;;;18.80;14.98;;;;;;;19.31;100.00;98749.03;5005058;28;20030;-76
2023/06/16 04:51:20;;;;;;;23.92;16.02;;;;;;;19.29;100.00;98757.94;5006396;28;20504;-76
2023/06/16 04:53:46;;;;;;;23.65;15.35;;;;;;;19.26;100.00;98752.28;5008874;28;20022;-76
2023/06/16 04:56:11;;;;;;;19.25;14.13;;;;;;;19.14;100.00;98748.69;5006717;28;20057;-76
2023/06/16 04:58:36;;;;;;;25.00;16.55;;;;;;;19.08;100.00;98747.50;5008406;28;20053;-76
2023/06/16 05:01:02;;;;;;;22.05;17.40;;;;;;;19.01;100.00;98751.19;5009645;28;20029;-76
2023/06/16 05:03:27;;;;;;;23.05;16.48;;;;;;;19.07;100.00;98755.19;5008845;28;20092;-76
2023/06/16 05:05:53;;;;;;;27.70;16.70;;;;;;;19.08;100.00;98759.63;5008431;28;20084;-76
2023/06/16 05:08:18;;;;;;;25.00;18.98;;;;;;;19.08;100.00;98756.81;5009950;28;20029;-76
2023/06/16 05:10:44;;;;;;;25.27;17.27;;;;;;;19.05;100.00;98751.16;5005312;28;20015;-76
2023/06/16 05:13:09;;;;;;;21.65;16.75;;;;;;;19.16;100.00;98760.41;4999740;28;20034;-76
2023/06/16 05:15:35;;;;;;;24.48;17.70;;;;;;;19.29;100.00;98755.09;5010803;28;20029;-76
2023/06/16 05:18:00;;;;;;;26.23;18.73;;;;;;;19.22;100.00;98757.97;5007340;28;20385;-76
2023/06/16 05:20:26;;;;;;;26.80;16.88;;;;;;;19.27;100.00;98759.56;5007269;28;20018;-76
2023/06/16 05:22:51;;;;;;;23.40;17.70;;;;;;;19.33;100.00;98760.78;5007672;28;20416;-74
2023/06/16 05:25:17;;;;;;;23.77;17.65;;;;;;;19.31;100.00;98760.38;5006923;28;20029;-77
2023/06/16 05:27:42;;;;;;;29.95;18.20;;;;;;;19.27;100.00;98754.72;5008995;28;20105;-75
2023/06/16 05:30:08;;;;;;;22.83;17.83;;;;;;;19.26;100.00;98764.44;5010796;28;20029;-75
2023/06/16 05:32:34;;;;;;;29.70;17.55;;;;;;;19.25;100.00;98762.00;5008270;28;20109;-78
2023/06/16 05:34:59;;;;;;;26.35;18.48;;;;;;;19.36;100.00;98762.78;5009921;28;20084;-75
2023/06/16 05:37:25;;;;;;;27.48;17.80;;;;;;;19.39;100.00;98752.66;5014188;28;20029;-75
2023/06/16 05:39:51;;;;;;;28.75;18.63;;;;;;;19.47;100.00;98757.84;5011688;28;20033;-76
2023/06/16 05:42:16;;;;;;;28.10;18.73;;;;;;;19.59;100.00;98767.91;5011653;28;20508;-76
2023/06/16 05:44:43;;;;;;;24.15;18.17;;;;;;;19.56;100.00;98762.28;5013495;28;20076;-74
2023/06/16 05:47:09;;;;;;;29.42;20.17;;;;;;;19.54;100.00;98759.03;5010384;28;20025;-75
2023/06/16 05:49:35;;;;;;;28.40;20.70;;;;;;;19.56;100.00;98760.22;5000064;28;20050;-73
2023/06/16 05:52:05;;;;;;;33.40;23.33;;;;;;;19.53;100.00;98765.91;5000225;28;20025;-74
2023/06/16 05:54:31;;;;;;;32.47;22.90;;;;;;;19.55;100.00;98764.28;4997061;28;20164;-74
2023/06/16 05:56:57;;;;;;;33.10;23.33;;;;;;;19.57;100.00;98766.72;5006690;28;20032;-74
2023/06/16 05:59:22;;;;;;;35.53;24.58;;;;;;;19.64;100.00;98772.34;5010771;28;20031;-74
2023/06/16 06:01:51;;;;;;;31.15;22.67;;;;;;;19.60;100.00;98768.72;5013480;28;20417;-73
2023/06/16 06:04:20;;;;;;;30.92;23.42;;;;;;;19.77;100.00;98764.16;5013542;28;20061;-73
2023/06/16 06:06:45;;;;;;;35.67;22.98;;;;;;;19.87;100.00;98762.47;5010346;28;20041;-74
2023/06/16 06:09:11;;;;;;;37.10;24.45;;;;;;;19.92;100.00;98762.06;5013503;28;20025;-73
2023/06/16 06:11:36;;;;;;;27.90;21.48;;;;;;;19.98;100.00;98766.06;5013678;28;20026;-73
2023/06/16 06:14:02;;;;;;;32.53;23.67;;;;;;;20.14;100.00;98767.56;4998890;28;20030;-73
2023/06/16 06:16:28;;;;;;;34.97;24.58;;;;;;;19.98;100.00;98774.59;4998851;28;20033;-73
2023/06/16 06:18:53;;;;;;;36.67;24.77;;;;;;;20.00;100.00;98772.13;5013366;28;20029;-73
2023/06/16 06:21:19;;;;;;;32.47;24.42;;;;;;;19.94;100.00;98768.16;5012474;28;20052;-73
2023/06/16 06:23:44;;;;;;;34.22;26.42;;;;;;;19.97;100.00;98767.31;5010316;28;20072;-73
2023/06/16 06:26:10;;;;;;;39.05;26.63;;;;;;;20.13;100.00;98772.47;5011390;28;20025;-73
2023/06/16 06:28:35;;;;;;;38.00;27.60;;;;;;;20.24;99.75;98775.19;5011187;28;20034;-73
2023/06/16 06:31:01;;;;;;;38.85;26.85;;;;;;;20.28;99.21;98775.19;5010753;28;20041;-73
2023/06/16 06:33:27;;;;;;;41.40;29.02;;;;;;;20.17;99.72;98770.38;5011687;28;20033;-73
2023/06/16 06:35:53;;;;;;;37.70;29.48;;;;;;;20.22;100.00;98769.13;5009769;28;20101;-74
2023/06/16 06:38:18;;;;;;;40.30;28.83;;;;;;;20.41;98.76;98766.97;4993243;28;20491;-75
2023/06/16 06:40:44;;;;;;;42.70;28.65;;;;;;;20.62;98.53;98766.75;5000707;28;20040;-75
2023/06/16 06:43:09;;;;;;;40.47;29.85;;;;;;;20.73;97.58;98763.00;5012664;28;20038;-75
2023/06/16 06:45:35;;;;;;;41.97;30.80;;;;;;;20.71;96.43;98762.59;5011542;28;20037;-75
2023/06/16 06:48:00;;;;;;;42.85;31.42;;;;;;;20.68;95.47;98772.78;5004569;28;20033;-75
2023/06/16 06:50:25;;;;;;;38.72;30.20;;;;;;;20.87;95.64;98771.38;5004916;28;20026;-75
2023/06/16 06:52:51;;;;;;;37.70;28.60;;;;;;;20.96;93.07;98767.25;5004719;28;20034;-75
2023/06/16 06:55:16;;;;;;;39.88;29.35;;;;;;;21.19;91.85;98766.59;4998265;28;20037;-75
2023/06/16 06:57:42;;;;;;;33.47;27.00;;;;;;;21.22;90.57;98759.22;5006198;28;20497;-75
2023/06/16 07:00:10;;;;;;;35.30;26.38;;;;;;;21.26;86.57;98760.00;5011086;28;20512;-75
2023/06/16 07:02:35;;;;;;;30.38;24.58;;;;;;;21.28;88.80;98763.22;5006256;28;20128;-75
2023/06/16 07:05:02;;;;;;;42.20;28.38;;;;;;;21.42;87.79;98763.03;5006674;28;20057;-75
2023/06/16 07:07:28;;;;;;;34.45;24.95;;;;;;;21.63;85.57;98763.97;5011410;28;20028;-75
2023/06/16 07:09:53;;;;;;;32.33;24.48;;;;;;;21.60;83.64;98768.47;5011993;28;20029;-75
2023/06/16 07:12:18;;;;;;;27.48;22.02;;;;;;;21.74;82.55;98766.69;5012427;28;20033;-75
2023/06/16 07:14:47;;;;;;;33.05;26.05;;;;;;;21.80;84.10;98764.16;5012485;28;20691;-75
2023/06/16 07:17:13;;;;;;;31.50;24.95;;;;;;;22.05;85.84;98754.44;5006228;28;20092;-74
2023/06/16 07:19:38;;;;;;;36.42;26.58;;;;;;;22.37;81.06;98756.75;5009874;28;20104;-73
2023/06/16 07:22:05;;;;;;;35.78;25.95;;;;;;;22.56;79.22;98763.78;5011249;28;20447;-73
2023/06/16 07:24:31;;;;;;;26.33;22.73;;;;;;;22.58;77.01;98758.47;5012346;28;20439;-72
2023/06/16 07:26:59;;;;;;;27.50;22.67;;;;;;;22.58;78.50;98752.75;5010040;28;20022;-73
2023/06/16 07:29:25;;;;;;;32.40;25.30;;;;;;;22.53;78.06;98746.75;5011973;28;20084;-73
2023/06/16 07:31:51;;;;;;;33.53;24.58;;;;;;;22.53;78.23;98761.78;5010911;28;20413;-72
2023/06/16 07:34:16;;;;;;;33.08;25.38;;;;;;;22.60;77.60;98765.75;5012029;28;20033;-73
2023/06/16 07:36:42;;;;;;;32.42;26.40;;;;;;;22.64;77.65;98758.75;5010557;28;20171;-72
2023/06/16 07:39:07;;;;;;;31.65;26.30;;;;;;;23.10;78.43;98756.25;5003912;28;20054;-73
2023/06/16 07:41:33;;;;;;;33.85;28.00;;;;;;;23.59;75.90;98759.72;5003737;28;20492;-75
2023/06/16 07:43:59;;;;;;;28.67;24.60;;;;;;;23.53;74.06;98759.44;5011087;28;20022;-75
2023/06/16 07:46:24;;;;;;;39.70;28.63;;;;;;;23.48;74.51;98762.84;5011745;28;20022;-74
2023/06/16 07:48:50;;;;;;;28.23;22.73;;;;;;;23.64;73.78;98773.50;5010994;28;20072;-74
2023/06/16 07:51:16;;;;;;;28.52;23.40;;;;;;;23.76;73.40;98763.44;5009273;28;20029;-73
2023/06/16 07:53:42;;;;;;;31.38;23.15;;;;;;;24.00;72.48;98766.16;5009377;28;20501;-74
2023/06/16 07:56:08;;;;;;;29.98;24.40;;;;;;;23.78;72.60;98756.03;5005274;28;20037;-73
2023/06/16 07:58:37;;;;;;;31.05;25.25;;;;;;;23.80;73.09;98756.41;5008809;28;20025;-73
2023/06/16 08:01:04;;;;;;;36.42;23.75;;;;;;;23.98;71.82;98755.97;5009809;28;20424;-75
2023/06/16 08:03:30;;;;;;;36.15;25.15;;;;;;;23.82;72.04;98753.09;5011672;28;20033;-75
2023/06/16 08:05:57;;;;;;;32.10;25.45;;;;;;;23.71;71.89;98750.47;5009055;28;20032;-75
2023/06/16 08:08:23;;;;;;;33.08;25.40;;;;;;;23.86;73.26;98750.97;5004987;28;20029;-74
2023/06/16 08:10:49;;;;;;;31.77;23.30;;;;;;;23.74;72.62;98757.38;5007825;28;20068;-74
2023/06/16 08:13:15;;;;;;;31.10;25.88;;;;;;;23.67;73.09;98750.59;5006045;28;20463;-73
2023/06/16 08:15:40;;;;;;;32.25;25.65;;;;;;;23.36;73.64;98752.91;5011396;28;20025;-74
2023/06/16 08:18:06;;;;;;;32.28;25.60;;;;;;;23.39;74.35;98752.03;5007160;28;20037;-73
2023/06/16 08:20:33;;;;;;;32.90;26.48;;;;;;;23.46;74.13;98749.00;5000348;28;20029;-73
2023/06/16 08:22:58;;;;;;;29.80;23.90;;;;;;;23.37;73.88;98755.31;5002978;28;20030;-72
2023/06/16 08:25:23;;;;;;;30.15;23.88;;;;;;;23.44;73.91;98753.56;5005399;28;20422;-73
2023/06/16 08:27:49;;;;;;;28.80;21.67;;;;;;;23.61;73.72;98763.75;5000753;28;20037;-73
2023/06/16 08:30:17;;;;;;;41.45;25.52;;;;;;;23.77;74.02;98751.59;5005681;28;20030;-73
2023/06/16 08:32:43;;;;;;;34.17;22.63;;;;;;;24.04;71.32;98750.56;5007131;28;20028;-74
2023/06/16 08:35:10;;;;;;;21.83;17.02;;;;;;;24.04;68.37;98749.78;5003067;28;20083;-74
2023/06/16 08:37:36;;;;;;;25.10;17.23;;;;;;;23.94;67.75;98751.59;5001142;28;20054;-73
2023/06/16 08:40:04;;;;;;;24.65;17.13;;;;;;;24.17;68.96;98752.72;5002173;28;20049;-73
2023/06/16 08:42:30;;;;;;;24.52;19.80;;;;;;;24.11;69.11;98741.84;5000896;28;20092;-75
2023/06/16 08:44:57;;;;;;;25.38;20.30;;;;;;;24.24;70.68;98741.91;5004399;28;20034;-73
2023/06/16 08:47:25;;;;;;;21.38;17.58;;;;;;;24.33;69.13;98732.72;5018217;28;20034;-72
2023/06/16 08:49:52;;;;;;;28.50;19.15;;;;;;;24.43;68.92;98725.13;4994934;28;20029;-74
2023/06/16 08:52:20;;;;;;;25.67;20.23;;;;;;;24.38;68.29;98719.97;4997479;28;20033;-73
2023/06/16 08:54:48;;;;;;;24.38;18.80;;;;;;;24.13;69.44;98723.44;5002139;28;20026;-73
2023/06/16 08:57:14;;;;;;;26.95;21.52;;;;;;;24.34;71.11;98722.91;5001758;28;20067;-73
2023/06/16 08:59:45;;;;;;;36.25;25.08;;;;;;;24.33;70.35;98709.06;5008469;28;20029;-77
2023/06/16 09:02:11;;;;;;;30.58;23.98;;;;;;;24.23;70.19;98714.59;5006233;28;20072;-76
2023/06/16 09:04:38;;;;;;;29.55;24.60;;;;;;;24.18;69.45;98715.16;5004581;28;20316;-77
2023/06/16 09:07:04;;;;;;;28.00;24.83;;;;;;;24.38;69.03;98717.09;5003088;28;20057;-75
2023/06/16 09:09:31;;;;;;;32.70;23.02;;;;;;;24.66;68.48;98704.06;5008026;28;20507;-75
2023/06/16 09:12:07;;;;;;;34.72;25.40;;;;;;;24.69;68.22;98702.38;5010002;28;20041;-78
2023/06/16 09:14:34;;;;;;;34.90;23.25;;;;;;;25.09;67.60;98695.56;4998085;28;20476;-77
2023/06/16 09:17:04;;;;;;;25.15;17.27;;;;;;;25.15;64.41;98692.94;4996072;28;20041;-79
2023/06/16 09:19:30;;;;;;;24.33;17.05;;;;;;;25.34;63.00;98683.38;5005924;28;20039;-79
2023/06/16 09:21:59;;;;;;;28.98;19.65;;;;;;;25.25;64.48;98691.84;5011228;28;20034;-77
2023/06/16 09:24:26;;;;;;;16.30;12.63;;;;;;;25.22;61.66;98682.09;5004288;28;20469;-79
2023/06/16 09:26:56;;;;;;;13.00;11.60;;;;;;;25.31;62.19;98694.94;5007711;28;20140;-77
2023/06/16 09:29:24;;;;;;;18.85;15.52;;;;;;;25.41;62.29;98693.81;5009297;28;20564;-79
2023/06/16 09:31:50;;;;;;;17.10;13.93;;;;;;;25.25;62.38;98691.84;5011529;28;20501;-78
2023/06/16 09:34:16;;;;;;;20.70;16.75;;;;;;;25.24;61.98;98696.75;5010524;28;20034;-79
2023/06/16 09:36:42;;;;;;;20.83;12.32;;;;;;;25.24;60.78;98693.09;5009597;28;20044;-77
2023/06/16 09:39:22;;;;;;;21.85;13.13;;;;;;;25.25;61.53;98700.41;5008809;28;20436;-78
2023/06/16 09:41:49;;;;;;;21.23;15.35;;;;;;;25.30;61.14;98699.84;5011475;28;20026;-78
2023/06/16 09:44:15;;;;;;;17.35;15.30;;;;;;;25.32;60.38;98700.19;5008420;28;20428;-78
2023/06/16 09:46:41;;;;;;;18.48;16.48;;;;;;;25.18;60.82;98700.63;5008240;28;20026;-77
2023/06/16 09:49:07;;;;;;;18.60;15.02;;;;;;;25.24;60.65;98696.75;5003804;28;20036;-76
2023/06/16 09:51:32;;;;;;;23.45;15.35;;;;;;;25.32;61.73;98691.59;4997856;28;20026;-75
2023/06/16 09:53:58;;;;;;;18.05;16.15;;;;;;;25.43;61.63;98690.47;5005494;28;20045;-75
2023/06/16 09:56:25;;;;;;;23.42;16.10;;;;;;;25.37;61.85;98693.91;5006348;28;20141;-73
2023/06/16 09:58:51;;;;;;;22.25;17.08;;;;;;;25.41;61.76;98693.00;5002952;28;20030;-73
2023/06/16 10:01:19;;;;;;;17.90;15.98;;;;;;;25.25;62.21;98700.41;5006494;28;20510;-73
2023/06/16 10:03:53;;;;;;;20.38;16.33;;;;;;;25.22;62.59;98701.34;5007573;28;20033;-75
2023/06/16 10:06:25;;;;;;;18.73;15.52;;;;;;;25.01;63.67;98694.97;5004479;28;20508;-73
2023/06/16 10:08:52;;;;;;;29.95;16.60;;;;;;;25.14;64.40;98695.00;5007041;28;20420;-74
2023/06/16 10:11:18;;;;;;;22.27;18.85;;;;;;;25.00;63.92;98687.66;5003732;28;20564;-75
2023/06/16 10:13:52;;;;;;;27.52;20.42;;;;;;;25.09;64.40;98679.19;5008215;28;20476;-74
2023/06/16 10:16:21;;;;;;;20.88;15.85;;;;;;;24.97;61.47;98690.63;5007653;28;20592;-75
2023/06/16 10:18:49;;;;;;;21.80;17.70;;;;;;;24.83;62.93;98686.09;5010333;28;20026;-75
2023/06/16 10:21:15;;;;;;;22.50;17.10;;;;;;;24.79;64.00;98689.06;5007660;28;20112;-76
2023/06/16 10:23:41;;;;;;;19.73;14.90;;;;;;;24.98;62.74;98672.19;5011405;28;20061;-74
2023/06/16 10:26:07;;;;;;;27.17;16.05;;;;;;;25.33;62.26;98676.03;5009765;28;20511;-73
2023/06/16 10:28:35;;;;;;;11.02;9.27;;;;;;;25.27;56.81;98677.06;5010807;28;20484;-73
2023/06/16 10:31:03;;;;;;;13.70;9.10;;;;;;;25.36;55.60;98675.13;5011449;28;20030;-74
2023/06/16 10:33:28;;;;;;;14.05;9.75;;;;;;;25.31;56.05;98672.03;5003465;28;20080;-73
2023/06/16 10:36:01;;;;;;;16.35;9.05;;;;;;;25.45;56.16;98674.44;5006587;28;20104;-73
2023/06/16 10:38:36;;;;;;;18.30;9.60;;;;;;;25.14;55.78;98669.25;4997580;28;20046;-73
2023/06/16 10:41:02;;;;;;;13.27;8.73;;;;;;;25.31;54.86;98669.97;5004419;28;20037;-73
2023/06/16 10:43:28;;;;;;;11.30;9.25;;;;;;;25.30;54.94;98671.22;5004222;28;20400;-73
2023/06/16 10:46:18;;;;;;;12.48;8.77;;;;;;;25.37;54.51;98658.75;4997897;28;20101;-73
2023/06/16 10:49:07;;;;;;;11.20;7.88;;;;;;;25.45;56.28;98654.41;5009598;28;20382;-73
2023/06/16 10:51:50;;;;;;;11.97;8.63;;;;;;;25.37;55.97;98653.03;5001543;28;20092;-73
2023/06/16 10:54:35;;;;;;;10.57;7.55;;;;;;;25.57;56.05;98641.38;4995325;28;20032;-73
2023/06/16 10:57:05;;;;;;;13.15;9.00;;;;;;;25.68;55.34;98649.63;4995280;28;20026;-73
2023/06/16 10:59:50;;;;;;;9.70;8.70;;;;;;;25.62;56.56;98640.81;4990604;28;20061;-73
2023/06/16 11:02:30;;;;;;;15.68;8.80;;;;;;;25.67;56.97;98638.63;4996959;28;20030;-73
2023/06/16 11:05:07;;;;;;;11.07;7.32;;;;;;;25.73;55.73;98622.50;4995857;28;20088;-73
2023/06/16 11:07:39;;;;;;;18.13;8.20;;;;;;;26.07;56.25;98618.84;4999664;28;20033;-73
2023/06/16 11:10:06;;;;;;;8.95;6.75;;;;;;;26.11;53.99;98613.00;5009923;28;20014;-73
2023/06/16 11:12:32;;;;;;;13.27;7.18;;;;;;;26.28;54.10;98610.00;5000361;28;20027;-74
2023/06/16 11:14:58;;;;;;;15.00;7.00;;;;;;;26.43;53.35;98611.09;4995274;28;20486;-73
2023/06/16 11:17:25;;;;;;;11.30;8.25;;;;;;;26.34;53.17;98613.88;4990321;28;20084;-73